createdAt,value
2022-10-05T00:00:39.157Z,921.5
2022-10-05T00:02:22.477Z,918.1
2022-10-05T00:09:14.489Z,909
2022-10-05T00:10:57.881Z,904.2
2022-10-05T00:12:41.319Z,903.3
2022-10-05T00:14:24.686Z,901.8
2022-10-05T00:16:08.076Z,899.7
2022-10-05T00:17:51.536Z,898.6
2022-10-05T00:19:34.870Z,898.5
2022-10-05T00:21:18.283Z,897.2
2022-10-05T00:23:01.722Z,894.2
2022-10-05T00:28:10.964Z,892.5
2022-10-05T00:29:54.302Z,891.7
2022-10-05T00:31:37.747Z,888.4
2022-10-05T00:33:21.169Z,889.5
2022-10-05T00:35:04.491Z,890.5
2022-10-05T00:36:48.011Z,888.7
2022-10-05T00:38:31.282Z,890.4
2022-10-05T00:40:14.713Z,892.1
2022-10-05T00:41:58.137Z,893.5
2022-10-05T00:45:24.589Z,890.9
2022-10-05T00:47:07.976Z,886.4
2022-10-05T00:48:51.336Z,885.1
2022-10-05T00:50:34.782Z,884.5
2022-10-05T00:52:18.191Z,885
2022-10-05T00:54:01.544Z,885.5
2022-10-05T00:55:44.944Z,884.6
2022-10-05T00:57:28.374Z,884.4
2022-10-05T00:59:11.747Z,885.4
2022-10-05T01:02:38.218Z,883.2
2022-10-05T01:04:21.625Z,884.1
2022-10-05T01:06:05.003Z,882.4
2022-10-05T01:07:48.461Z,877.4
2022-10-05T01:09:31.785Z,876
2022-10-05T01:11:15.181Z,877
2022-10-05T01:12:58.627Z,876.2
2022-10-05T01:14:41.978Z,876.4
2022-10-05T01:16:25.388Z,875.3
2022-10-05T01:21:34.624Z,873
2022-10-05T01:23:17.996Z,872.4
2022-10-05T01:25:01.411Z,874
2022-10-05T01:26:44.833Z,872.7
2022-10-05T01:28:28.208Z,874.1
2022-10-05T01:30:11.594Z,872.6
2022-10-05T01:31:55.058Z,869.8
2022-10-05T01:33:38.384Z,868.5
2022-10-05T01:35:21.802Z,866.5
2022-10-05T01:38:48.275Z,864.5
2022-10-05T01:40:31.656Z,864.3
2022-10-05T01:42:15.080Z,866
2022-10-05T01:43:58.427Z,865.1
2022-10-05T01:45:41.852Z,860.7
2022-10-05T01:47:25.283Z,859.7
2022-10-05T01:49:08.630Z,859.8
2022-10-05T01:50:52.111Z,856.1
2022-10-05T01:52:35.416Z,854.2
2022-10-05T01:54:19.165Z,855.6
2022-10-05T01:56:02.531Z,855
2022-10-05T01:57:45.933Z,853.7
2022-10-05T01:59:29.366Z,849.5
2022-10-05T02:01:12.694Z,844.8
2022-10-05T02:02:56.128Z,841.3
2022-10-05T02:04:39.499Z,838.5
2022-10-05T02:06:22.906Z,840.4
2022-10-05T02:08:06.331Z,839.1
2022-10-05T02:13:15.571Z,836
2022-10-05T02:14:58.947Z,833.3
2022-10-05T02:16:42.335Z,831
2022-10-05T02:18:25.776Z,831.3
2022-10-05T02:20:09.104Z,830.7
2022-10-05T02:21:52.539Z,828.2
2022-10-05T02:23:35.904Z,830.1
2022-10-05T02:25:19.299Z,830.3
2022-10-05T02:27:02.745Z,829.8
2022-10-05T02:30:29.177Z,833.5
2022-10-05T02:32:12.584Z,833.7
2022-10-05T02:33:56.021Z,833.5
2022-10-05T02:35:39.380Z,833.1
2022-10-05T02:37:22.783Z,834
2022-10-05T02:39:06.167Z,833.3
2022-10-05T02:40:49.552Z,831.7
2022-10-05T02:42:32.987Z,828.7
2022-10-05T02:44:16.358Z,827
2022-10-05T02:47:42.835Z,824.5
2022-10-05T02:49:26.271Z,825.1
2022-10-05T02:51:09.646Z,827.3
2022-10-05T02:52:53.032Z,824.3
2022-10-05T02:54:36.465Z,819.7
2022-10-05T02:56:19.788Z,819.8
2022-10-05T02:58:03.237Z,821.3
2022-10-05T02:59:46.632Z,817.8
2022-10-05T03:01:29.997Z,818.6
2022-10-05T03:04:56.517Z,819.4
2022-10-05T03:06:39.913Z,818.3
2022-10-05T03:08:23.305Z,818.3
2022-10-05T03:10:06.662Z,817.4
2022-10-05T03:11:50.053Z,814.5
2022-10-05T03:13:33.477Z,811.7
2022-10-05T03:15:16.837Z,807.4
2022-10-05T03:17:00.246Z,810.7
2022-10-05T03:18:43.700Z,809
2022-10-05T03:22:10.117Z,810.8
2022-10-05T03:23:53.525Z,810.2
2022-10-05T03:25:36.897Z,810.6
2022-10-05T03:27:20.290Z,812.6
2022-10-05T03:29:03.732Z,812.2
2022-10-05T03:30:47.085Z,809.8
2022-10-05T03:32:30.489Z,809.5
2022-10-05T03:34:13.941Z,805.5
2022-10-05T03:35:57.287Z,803.3
2022-10-05T03:39:23.774Z,805.4
2022-10-05T03:41:07.159Z,803.7
2022-10-05T03:42:50.601Z,803.4
2022-10-05T03:44:33.969Z,805.4
2022-10-05T03:46:17.323Z,806.8
2022-10-05T03:48:00.740Z,803.6
2022-10-05T03:49:44.132Z,803.7
2022-10-05T03:51:27.535Z,807
2022-10-05T03:53:10.940Z,806.1
2022-10-05T03:56:37.394Z,813.2
2022-10-05T03:58:20.791Z,813.4
2022-10-05T04:00:04.233Z,815
2022-10-05T04:01:47.580Z,817.3
2022-10-05T04:05:14.422Z,824.6
2022-10-05T04:06:57.774Z,827
2022-10-05T04:08:41.186Z,828.2
2022-10-05T04:10:24.570Z,828.6
2022-10-05T04:12:08.320Z,832.9
2022-10-05T04:13:51.654Z,837.6
2022-10-05T04:15:35.067Z,839.6
2022-10-05T04:17:18.510Z,841.8
2022-10-05T04:19:01.843Z,845.1
2022-10-05T04:20:45.266Z,846.1
2022-10-05T04:22:28.632Z,844.3
2022-10-05T04:24:12.034Z,842.7
2022-10-05T04:25:55.481Z,841.6
2022-10-05T04:29:21.902Z,848.2
2022-10-05T04:31:05.315Z,850.8
2022-10-05T04:32:48.781Z,852.1
2022-10-05T04:34:32.093Z,853.4
2022-10-05T04:36:15.563Z,854.7
2022-10-05T04:37:58.887Z,859.2
2022-10-05T04:39:42.332Z,863.3
2022-10-05T04:41:25.726Z,864.3
2022-10-05T04:43:09.080Z,864.2
2022-10-05T04:48:18.340Z,871.6
2022-10-05T04:50:01.737Z,873.1
2022-10-05T04:51:45.121Z,875.4
2022-10-05T04:53:28.516Z,876.6
2022-10-05T04:55:11.932Z,876
2022-10-05T04:56:55.306Z,878.6
2022-10-05T04:58:38.704Z,877
2022-10-05T05:00:22.132Z,878.2
2022-10-05T05:02:05.496Z,879.3
2022-10-05T05:07:14.730Z,882.6
2022-10-05T05:08:58.172Z,881.7
2022-10-05T05:10:41.657Z,880.5
2022-10-05T05:12:24.974Z,880
2022-10-05T05:14:08.343Z,878.7
2022-10-05T05:15:51.722Z,877.2
2022-10-05T05:17:35.130Z,875.3
2022-10-05T05:19:18.551Z,876.2
2022-10-05T05:21:01.923Z,877.2
2022-10-05T05:24:28.389Z,876
2022-10-05T05:26:11.831Z,878
2022-10-05T05:27:55.170Z,880.8
2022-10-05T05:29:38.596Z,880.7
2022-10-05T05:31:21.968Z,876.6
2022-10-05T05:33:05.361Z,875.3
2022-10-05T05:34:48.794Z,876.7
2022-10-05T05:36:32.159Z,880.1
2022-10-05T05:38:15.551Z,879
2022-10-05T05:43:24.803Z,875.1
2022-10-05T05:45:08.237Z,876.3
2022-10-05T05:46:51.584Z,878
2022-10-05T05:48:35.018Z,879.2
2022-10-05T05:50:18.468Z,879.8
2022-10-05T05:52:01.787Z,878.2
2022-10-05T05:53:45.229Z,879.6
2022-10-05T05:55:28.560Z,879.7
2022-10-05T05:57:11.983Z,879.6
2022-10-05T06:00:38.492Z,881.2
2022-10-05T06:02:21.910Z,880.8
2022-10-05T06:04:05.246Z,883
2022-10-05T06:05:48.687Z,881.5
2022-10-05T06:07:32.036Z,878.3
2022-10-05T06:09:15.463Z,877
2022-10-05T06:10:58.882Z,877.2
2022-10-05T06:12:42.289Z,876.7
2022-10-05T06:14:25.668Z,879
2022-10-05T06:19:34.905Z,880.1
2022-10-05T06:21:18.371Z,878.3
2022-10-05T06:23:01.659Z,876.6
2022-10-05T06:24:45.093Z,877.6
2022-10-05T06:26:28.442Z,879.5
2022-10-05T06:28:12.004Z,881.7
2022-10-05T06:29:55.312Z,884.1
2022-10-05T06:31:38.617Z,882.2
2022-10-05T06:33:22.082Z,881.4
2022-10-05T06:38:31.312Z,894.4
2022-10-05T06:40:14.715Z,899.3
2022-10-05T06:41:58.088Z,902.5
2022-10-05T06:43:41.556Z,900.5
2022-10-05T06:45:24.836Z,901.7
2022-10-05T06:47:08.263Z,903.5
2022-10-05T06:48:51.619Z,906.2
2022-10-05T06:50:35.041Z,909.6
2022-10-05T06:52:18.469Z,911.8
2022-10-05T06:55:44.931Z,920.9
2022-10-05T06:57:28.371Z,921
2022-10-05T06:59:11.750Z,921
2022-10-05T07:00:55.097Z,921.8
2022-10-05T07:02:38.513Z,923
2022-10-05T07:04:21.875Z,924
2022-10-05T07:06:05.333Z,926.1
2022-10-05T07:07:48.714Z,926.2
2022-10-05T07:09:32.073Z,923.6
2022-10-05T07:14:41.317Z,927.9
2022-10-05T07:16:24.730Z,924.8
2022-10-05T07:18:08.159Z,923.4
2022-10-05T07:19:51.514Z,922.7
2022-10-05T07:21:35.006Z,933.1
2022-10-05T07:23:18.370Z,947.2
2022-10-05T07:25:01.753Z,954.4
2022-10-05T07:26:45.128Z,961.7
2022-10-05T07:28:28.534Z,973.4
2022-10-05T07:33:37.717Z,966.2
2022-10-05T07:35:21.129Z,963.1
2022-10-05T07:37:04.717Z,962
2022-10-05T07:38:47.942Z,960.8
2022-10-05T07:40:31.370Z,957.1
2022-10-05T07:42:14.704Z,956
2022-10-05T07:43:58.102Z,956.5
2022-10-05T07:45:41.544Z,954.5
2022-10-05T07:47:24.984Z,960.3
2022-10-05T07:52:34.141Z,977.3
2022-10-05T07:54:17.537Z,981.4
2022-10-05T07:56:00.975Z,981.3
2022-10-05T07:57:44.440Z,988.4
2022-10-05T07:59:27.848Z,989.2
2022-10-05T08:01:11.119Z,988.4
2022-10-05T08:02:54.554Z,987.3
2022-10-05T08:04:37.973Z,984.7
2022-10-05T08:06:21.310Z,985.7
2022-10-05T08:09:47.810Z,989.1
2022-10-05T08:11:31.252Z,991.2
2022-10-05T08:13:14.603Z,990.2
2022-10-05T08:14:58.118Z,984.3
2022-10-05T08:16:41.391Z,977.6
2022-10-05T08:18:24.820Z,973.7
2022-10-05T08:20:08.207Z,971
2022-10-05T08:21:51.545Z,969.7
2022-10-05T08:23:34.950Z,957.7
2022-10-05T08:27:01.512Z,940.3
2022-10-05T08:28:44.819Z,929.3
2022-10-05T08:30:28.237Z,912.5
2022-10-05T08:32:11.682Z,897
2022-10-05T08:33:55.040Z,900
2022-10-05T08:35:38.447Z,902.4
2022-10-05T08:37:21.856Z,899
2022-10-05T08:39:05.213Z,898.2
2022-10-05T08:40:48.743Z,896.3
2022-10-05T08:44:15.079Z,892.3
2022-10-05T08:45:58.477Z,888.1
2022-10-05T08:47:41.859Z,884.5
2022-10-05T08:49:25.295Z,881.8
2022-10-05T08:51:08.710Z,884.2
2022-10-05T08:52:52.116Z,882.5
2022-10-05T08:54:35.449Z,876.8
2022-10-05T08:56:18.891Z,874.5
2022-10-05T08:58:02.244Z,871.4
2022-10-05T09:03:11.479Z,863.9
2022-10-05T09:04:54.894Z,862.3
2022-10-05T09:06:38.271Z,863.3
2022-10-05T09:08:21.683Z,860.3
2022-10-05T09:10:05.123Z,856.4
2022-10-05T09:11:48.462Z,854.1
2022-10-05T09:13:31.863Z,850.7
2022-10-05T09:15:15.315Z,846.3
2022-10-05T09:16:58.666Z,843.2
2022-10-05T09:23:50.843Z,835.9
2022-10-05T09:25:34.118Z,833
2022-10-05T09:27:17.488Z,830
2022-10-05T09:29:00.909Z,827.1
2022-10-05T09:30:44.252Z,827.5
2022-10-05T09:32:27.660Z,827.3
2022-10-05T09:34:11.102Z,826.1
2022-10-05T09:35:54.447Z,822.7
2022-10-05T09:37:37.871Z,821.6
2022-10-05T09:42:47.106Z,832.9
2022-10-05T09:44:30.474Z,834.8
2022-10-05T09:46:13.935Z,851.7
2022-10-05T09:47:57.309Z,900.2
2022-10-05T09:49:40.729Z,913.6
2022-10-05T09:51:24.068Z,923.6
2022-10-05T09:53:07.447Z,948.8
2022-10-05T09:54:50.877Z,961
2022-10-05T09:56:34.420Z,963.6
2022-10-05T10:00:00.745Z,944.8
2022-10-05T10:01:44.205Z,936.5
2022-10-05T10:03:27.582Z,932.8
2022-10-05T10:05:10.933Z,938.8
2022-10-05T10:06:54.332Z,944.6
2022-10-05T10:08:37.816Z,956.5
2022-10-05T10:10:21.098Z,969.7
2022-10-05T10:12:04.653Z,980.2
2022-10-05T10:13:47.914Z,997
2022-10-05T10:17:14.360Z,1012.6
2022-10-05T10:18:57.811Z,1026.3
2022-10-05T10:20:41.159Z,1031.3
2022-10-05T10:22:24.567Z,1039.1
2022-10-05T10:24:08.041Z,1047.1
2022-10-05T10:25:51.408Z,1047.5
2022-10-05T10:27:34.872Z,1047.5
2022-10-05T10:29:18.145Z,1045.6
2022-10-05T10:31:01.536Z,1044
2022-10-05T10:34:28.054Z,1050.5
2022-10-05T10:36:11.389Z,1059.4
2022-10-05T10:37:54.909Z,1065.4
2022-10-05T10:39:38.303Z,1065.2
2022-10-05T10:41:21.599Z,1067.3
2022-10-05T10:43:05.011Z,1070.5
2022-10-05T10:44:48.427Z,1133.1
2022-10-05T10:46:31.775Z,1132
2022-10-05T10:51:41.076Z,1153.9
2022-10-05T10:53:24.486Z,1154.7
2022-10-05T10:55:07.820Z,1150.2
2022-10-05T10:56:51.252Z,1150.4
2022-10-05T10:58:34.743Z,1151
2022-10-05T11:00:17.984Z,1146.5
2022-10-05T11:02:01.465Z,1145.5
2022-10-05T11:03:44.797Z,1145.1
2022-10-05T11:05:28.187Z,1145
2022-10-05T11:08:54.712Z,1141.4
2022-10-05T11:10:38.062Z,1141.2
2022-10-05T11:12:21.507Z,1140.6
2022-10-05T11:14:04.843Z,1138.2
2022-10-05T11:15:48.314Z,1137.8
2022-10-05T11:17:31.675Z,1140.4
2022-10-05T11:19:15.097Z,1144.8
2022-10-05T11:20:58.453Z,1145
2022-10-05T11:26:07.684Z,1149.3
2022-10-05T11:27:51.149Z,1148.3
2022-10-05T11:29:34.462Z,1150.5
2022-10-05T11:31:17.906Z,1153.1
2022-10-05T11:33:01.334Z,1151.7
2022-10-05T11:34:44.773Z,1155.1
2022-10-05T11:36:28.204Z,1153.2
2022-10-05T11:38:11.443Z,1155.5
2022-10-05T11:39:54.841Z,1158.6
2022-10-05T11:43:21.398Z,1159.1
2022-10-05T11:45:04.848Z,1162
2022-10-05T11:46:48.226Z,1163.4
2022-10-05T11:48:31.579Z,1167.3
2022-10-05T11:50:14.930Z,1169.1
2022-10-05T11:51:58.392Z,1171.7
2022-10-05T11:53:41.710Z,1173.6
2022-10-05T11:55:25.108Z,1175.7
2022-10-05T11:57:08.532Z,1178.2
2022-10-05T12:04:00.560Z,1176.2
2022-10-05T12:05:43.932Z,1174.7
2022-10-05T12:07:27.296Z,1175.6
2022-10-05T12:09:10.799Z,1175.4
2022-10-05T12:10:54.153Z,1178
2022-10-05T12:12:37.463Z,1178.8
2022-10-05T12:14:20.911Z,1182.1
2022-10-05T12:16:04.273Z,1184.2
2022-10-05T12:17:47.672Z,1185.3
2022-10-05T12:21:14.183Z,1190.5
2022-10-05T12:22:57.534Z,1195.7
2022-10-05T12:24:40.950Z,1199.6
2022-10-05T12:26:24.385Z,1200.7
2022-10-05T12:28:07.740Z,1204.2
2022-10-05T12:29:51.144Z,1208.8
2022-10-05T12:31:34.512Z,1212.3
2022-10-05T12:33:17.967Z,1212.3
2022-10-05T12:35:01.349Z,1205.3
2022-10-05T12:40:10.589Z,1199.9
2022-10-05T12:41:53.944Z,1207.3
2022-10-05T12:43:37.360Z,1210.2
2022-10-05T12:45:20.735Z,1208.4
2022-10-05T12:47:04.114Z,1208.5
2022-10-05T12:48:47.666Z,1207.7
2022-10-05T12:50:30.921Z,1209
2022-10-05T12:52:14.319Z,1209.2
2022-10-05T12:57:23.578Z,1217.8
2022-10-05T12:59:07.004Z,1219.6
2022-10-05T13:00:50.396Z,1223.7
2022-10-05T13:02:33.797Z,1227.2
2022-10-05T13:04:17.212Z,1223
2022-10-05T13:06:00.546Z,1216.4
2022-10-05T13:07:43.965Z,1210.8
2022-10-05T13:09:27.336Z,1207.4
2022-10-05T13:11:10.751Z,1202.5
2022-10-05T13:14:37.245Z,1188.5
2022-10-05T13:16:20.596Z,1185.4
2022-10-05T13:18:04.014Z,1181.3
2022-10-05T13:19:47.374Z,1177.5
2022-10-05T13:21:30.778Z,1175.7
2022-10-05T13:23:14.215Z,1170.5
2022-10-05T13:24:57.578Z,1164.1
2022-10-05T13:26:40.976Z,1152.7
2022-10-05T13:28:24.427Z,1148.8
2022-10-05T13:33:33.670Z,774.8
2022-10-05T13:35:17.031Z,649
2022-10-05T13:37:00.427Z,550.4
2022-10-05T13:38:43.796Z,515.2
2022-10-05T13:40:27.195Z,466.2
2022-10-05T13:42:10.633Z,433.5
2022-10-05T13:43:53.983Z,414.2
2022-10-05T13:45:37.384Z,399.4
2022-10-05T13:47:20.839Z,396.7
2022-10-05T13:50:47.258Z,393.8
2022-10-05T13:52:30.669Z,393.6
2022-10-05T13:54:14.044Z,391.7
2022-10-05T13:55:57.454Z,385
2022-10-05T13:57:40.873Z,379.2
2022-10-05T13:59:24.216Z,373.2
2022-10-05T14:01:07.631Z,371.6
2022-10-05T14:02:51.068Z,366.8
2022-10-05T14:08:00.321Z,354.3
2022-10-05T14:09:43.666Z,351.6
2022-10-05T14:11:27.104Z,349.1
2022-10-05T14:13:10.436Z,346.8
2022-10-05T14:14:53.836Z,345.1
2022-10-05T14:16:37.291Z,341.8
2022-10-05T14:18:20.629Z,336.7
2022-10-05T14:20:04.082Z,335.1
2022-10-05T14:23:30.646Z,334.7
2022-10-05T14:25:13.906Z,335.3
2022-10-05T14:26:57.322Z,335.3
2022-10-05T14:28:40.743Z,333.7
2022-10-05T14:30:24.114Z,330.8
2022-10-05T14:32:07.527Z,328.2
2022-10-05T14:33:50.872Z,325.1
2022-10-05T14:35:34.312Z,325.1
2022-10-05T14:40:43.530Z,321.8
2022-10-05T14:42:26.974Z,319.8
2022-10-05T14:44:10.321Z,321.1
2022-10-05T14:45:53.727Z,321
2022-10-05T14:47:37.144Z,323.8
2022-10-05T14:49:20.497Z,323.6
2022-10-05T14:51:03.976Z,325.4
2022-10-05T14:52:47.291Z,327.3
2022-10-05T14:54:30.699Z,323.7
2022-10-05T14:56:14.392Z,321.9
2022-10-05T14:57:57.824Z,325
2022-10-05T14:59:41.219Z,327.1
2022-10-05T15:01:24.600Z,327.3
2022-10-05T15:03:08.019Z,325
2022-10-05T15:04:51.359Z,323.6
2022-10-05T15:06:34.791Z,322.8
2022-10-05T15:08:18.236Z,320.8
2022-10-05T15:13:27.460Z,319
2022-10-05T15:15:10.804Z,316.8
2022-10-05T15:16:54.235Z,316.3
2022-10-05T15:18:37.579Z,313.6
2022-10-05T15:20:20.989Z,317.6
2022-10-05T15:22:04.430Z,322.7
2022-10-05T15:23:47.776Z,327
2022-10-05T15:25:31.188Z,331.1
2022-10-05T15:30:40.432Z,346.7
2022-10-05T15:32:23.805Z,355.1
2022-10-05T15:34:07.203Z,367.7
2022-10-05T15:35:50.641Z,395
2022-10-05T15:37:33.995Z,414.7
2022-10-05T15:39:17.397Z,445
2022-10-05T15:41:00.843Z,472.4
2022-10-05T15:42:44.174Z,484.4
2022-10-05T15:44:27.596Z,494.8
2022-10-05T15:46:11.278Z,503.8
2022-10-05T15:47:54.736Z,499.7
2022-10-05T15:49:38.080Z,503.7
2022-10-05T15:51:21.498Z,508.7
2022-10-05T15:53:04.917Z,514.5
2022-10-05T15:54:48.265Z,515.6
2022-10-05T15:58:15.057Z,526.7
2022-10-05T15:59:58.448Z,531.6
2022-10-05T16:03:24.967Z,540.7
2022-10-05T16:05:08.308Z,551.3
2022-10-05T16:06:51.734Z,567
2022-10-05T16:08:35.173Z,574.5
2022-10-05T16:10:18.505Z,579.7
2022-10-05T16:12:01.936Z,585.3
2022-10-05T16:13:45.294Z,587.6
2022-10-05T16:15:28.710Z,591.2
2022-10-05T16:17:12.136Z,595.3
2022-10-05T16:20:38.599Z,599.2
2022-10-05T16:22:21.987Z,605.8
2022-10-05T16:24:05.420Z,609.4
2022-10-05T16:25:48.746Z,614.3
2022-10-05T16:27:32.178Z,618.5
2022-10-05T16:29:15.551Z,622
2022-10-05T16:30:58.942Z,625.6
2022-10-05T16:32:42.415Z,631.3
2022-10-05T16:34:25.759Z,634.5
2022-10-05T16:37:52.258Z,643.6
2022-10-05T16:39:35.631Z,646
2022-10-05T16:41:19.036Z,649
2022-10-05T16:43:02.428Z,651.7
2022-10-05T16:44:45.797Z,652.2
2022-10-05T16:46:29.187Z,653.8
2022-10-05T16:48:12.644Z,656.8
2022-10-05T16:49:55.984Z,657.6
2022-10-05T16:51:39.394Z,661.1
2022-10-05T16:55:05.852Z,670.9
2022-10-05T16:56:49.246Z,675.6
2022-10-05T16:58:32.686Z,679.1
2022-10-05T17:00:16.031Z,680.7
2022-10-05T17:01:59.435Z,684.8
2022-10-05T17:03:42.877Z,689.5
2022-10-05T17:05:26.223Z,691.6
2022-10-05T17:07:09.653Z,694.3
2022-10-05T17:12:18.878Z,700
2022-10-05T17:14:02.404Z,702.6
2022-10-05T17:15:45.646Z,705.8
2022-10-05T17:17:29.084Z,710
2022-10-05T17:19:12.436Z,712.4
2022-10-05T17:20:55.856Z,715.8
2022-10-05T17:22:39.294Z,716
2022-10-05T17:24:22.632Z,717.7
2022-10-05T17:26:06.046Z,717.3
2022-10-05T17:27:49.731Z,714.9
2022-10-05T17:29:33.211Z,716.4
2022-10-05T17:31:16.531Z,715.2
2022-10-05T17:32:59.952Z,713.4
2022-10-05T17:34:43.310Z,717.5
2022-10-05T17:36:26.720Z,723
2022-10-05T17:38:10.130Z,733.4
2022-10-05T17:39:53.498Z,742.2
2022-10-05T17:41:36.902Z,748.2
2022-10-05T17:45:03.417Z,758.3
2022-10-05T17:46:46.767Z,765.6
2022-10-05T17:48:30.181Z,772.8
2022-10-05T17:50:13.549Z,779.8
2022-10-05T17:51:56.945Z,786.5
2022-10-05T17:53:40.379Z,792.5
2022-10-05T17:55:23.754Z,799.2
2022-10-05T17:57:07.146Z,806.8
2022-10-05T18:02:16.380Z,829.1
2022-10-05T18:03:59.829Z,829.5
2022-10-05T18:05:43.182Z,830.6
2022-10-05T18:07:26.590Z,835.3
2022-10-05T18:09:10.074Z,842.5
2022-10-05T18:10:53.372Z,848.7
2022-10-05T18:12:36.795Z,858.8
2022-10-05T18:14:20.166Z,868.3
2022-10-05T18:16:03.566Z,871.3
2022-10-05T18:19:30.072Z,877.7
2022-10-05T18:21:13.412Z,883.4
2022-10-05T18:22:56.845Z,887.5
2022-10-05T18:24:40.276Z,889.4
2022-10-05T18:26:23.599Z,890.3
2022-10-05T18:28:07.039Z,892.2
2022-10-05T18:29:50.398Z,895.8
2022-10-05T18:31:33.810Z,901.2
2022-10-05T18:33:17.249Z,904
2022-10-05T18:36:43.662Z,916.9
2022-10-05T18:38:27.082Z,923.7
2022-10-05T18:40:10.525Z,927.5
2022-10-05T18:41:53.860Z,929.8
2022-10-05T18:43:37.298Z,931.2
2022-10-05T18:45:20.725Z,927.3
2022-10-05T18:47:04.041Z,922.3
2022-10-05T18:48:47.488Z,921.3
2022-10-05T18:53:56.741Z,917.6
2022-10-05T18:55:40.084Z,916.1
2022-10-05T18:57:23.494Z,913.4
2022-10-05T18:59:06.862Z,912.1
2022-10-05T19:00:50.263Z,908.8
2022-10-05T19:02:33.693Z,906.7
2022-10-05T19:04:17.058Z,908.8
2022-10-05T19:06:00.455Z,908.4
2022-10-05T19:07:43.906Z,905
2022-10-05T19:09:27.575Z,901
2022-10-05T19:11:10.949Z,899.2
2022-10-05T19:12:54.357Z,896.6
2022-10-05T19:14:37.780Z,896.8
2022-10-05T19:16:21.152Z,897.6
2022-10-05T19:18:04.542Z,898.4
2022-10-05T19:19:47.985Z,896.3
2022-10-05T19:21:31.330Z,895.3
2022-10-05T19:23:14.748Z,892.4
2022-10-05T19:26:41.203Z,895.8
2022-10-05T19:28:24.594Z,900.7
2022-10-05T19:30:08.030Z,901
2022-10-05T19:31:51.483Z,903.8
2022-10-05T19:33:34.785Z,908.4
2022-10-05T19:35:18.228Z,912.3
2022-10-05T19:37:01.560Z,920.1
2022-10-05T19:38:44.992Z,924.3
2022-10-05T19:43:54.230Z,920
2022-10-05T19:45:37.611Z,916.8
2022-10-05T19:47:20.990Z,913.5
2022-10-05T19:49:04.431Z,915.5
2022-10-05T19:50:47.836Z,917.2
2022-10-05T19:52:31.218Z,914.4
2022-10-05T19:54:14.638Z,909
2022-10-05T19:55:57.978Z,907.2
2022-10-05T19:57:41.402Z,903
2022-10-05T20:02:50.637Z,898.2
2022-10-05T20:04:34.012Z,895.6
2022-10-05T20:06:17.402Z,895.7
2022-10-05T20:08:00.843Z,893.6
2022-10-05T20:09:44.201Z,889.7
2022-10-05T20:11:27.613Z,888
2022-10-05T20:13:11.047Z,885.8
2022-10-05T20:14:54.394Z,886.4
2022-10-05T20:16:37.845Z,886.6
2022-10-05T20:18:21.489Z,887.2
2022-10-05T20:20:04.932Z,886.3
2022-10-05T20:21:48.287Z,883.7
2022-10-05T20:23:31.700Z,883.8
2022-10-05T20:25:15.067Z,885
2022-10-05T20:26:58.458Z,885.2
2022-10-05T20:28:41.890Z,880.3
2022-10-05T20:30:25.277Z,878.6
2022-10-05T20:32:08.679Z,874.3
2022-10-05T20:33:52.357Z,873.2
2022-10-05T20:35:35.822Z,868.7
2022-10-05T20:37:19.248Z,866.3
2022-10-05T20:39:02.546Z,864
2022-10-05T20:40:45.980Z,862.5
2022-10-05T20:42:29.341Z,860.1
2022-10-05T20:44:12.744Z,858.7
2022-10-05T20:45:56.182Z,856.7
2022-10-05T20:47:39.534Z,856.2
2022-10-05T20:51:06.022Z,854.6
2022-10-05T20:52:49.397Z,855.5
2022-10-05T20:54:32.805Z,857.4
2022-10-05T20:56:16.237Z,858.5
2022-10-05T20:57:59.586Z,855.2
2022-10-05T20:59:42.994Z,852.8
2022-10-05T21:01:26.460Z,854.2
2022-10-05T21:03:09.776Z,856
2022-10-05T21:04:53.207Z,852.8
2022-10-05T21:08:19.649Z,847.5
2022-10-05T21:10:03.178Z,849
2022-10-05T21:11:46.496Z,848.8
2022-10-05T21:13:29.824Z,849.8
2022-10-05T21:15:13.252Z,850.8
2022-10-05T21:16:56.771Z,852.7
2022-10-05T21:18:40.020Z,850.4
2022-10-05T21:20:23.436Z,853.3
2022-10-05T21:23:49.919Z,854
2022-10-05T21:25:33.310Z,853.8
2022-10-05T21:27:16.719Z,852
2022-10-05T21:29:00.073Z,852.3
2022-10-05T21:30:43.509Z,851.1
2022-10-05T21:32:26.969Z,855.7
2022-10-05T21:34:10.319Z,859.4
2022-10-05T21:35:53.844Z,860.4
2022-10-05T21:37:37.064Z,860.8
2022-10-05T21:41:03.531Z,865.4
2022-10-05T21:42:46.975Z,865.4
2022-10-05T21:44:30.316Z,862.5
2022-10-05T21:46:13.734Z,861
2022-10-05T21:47:57.204Z,861.4
2022-10-05T21:49:40.514Z,862.8
2022-10-05T21:51:23.954Z,860.6
2022-10-05T21:53:07.331Z,859.4
2022-10-05T21:58:16.547Z,867.5
2022-10-05T21:59:59.994Z,873.8
2022-10-05T22:01:43.404Z,877.7
2022-10-05T22:03:26.723Z,880.3
2022-10-05T22:05:10.168Z,882.5
2022-10-05T22:06:53.581Z,882.3
2022-10-05T22:08:36.923Z,879.6
2022-10-05T22:10:20.388Z,877.5
2022-10-05T22:13:46.798Z,877.1
2022-10-05T22:15:30.189Z,877.3
2022-10-05T22:17:13.625Z,878.4
2022-10-05T22:18:56.980Z,877.6
2022-10-05T22:20:40.387Z,876
2022-10-05T22:22:23.830Z,876.5
2022-10-05T22:24:07.176Z,875.6
2022-10-05T22:25:50.593Z,874.6
2022-10-05T22:27:33.953Z,876
2022-10-05T22:29:17.714Z,875.5
2022-10-05T22:31:01.072Z,871.8
2022-10-05T22:32:44.470Z,870.7
2022-10-05T22:34:27.848Z,872.7
2022-10-05T22:36:11.239Z,871.3
2022-10-05T22:37:54.674Z,871.4
2022-10-05T22:39:38.076Z,870.5
2022-10-05T22:41:21.436Z,870.6
2022-10-05T22:46:30.678Z,874.3
2022-10-05T22:48:14.122Z,873.7
2022-10-05T22:49:57.538Z,874.2
2022-10-05T22:51:40.884Z,874.5
2022-10-05T22:53:24.272Z,873.7
2022-10-05T22:55:07.663Z,874.4
2022-10-05T22:56:51.087Z,873.3
2022-10-05T22:58:34.476Z,872.6
2022-10-05T23:00:17.844Z,871
2022-10-05T23:03:44.446Z,874.3
2022-10-05T23:05:27.734Z,874.8
2022-10-05T23:07:11.129Z,873.6
2022-10-05T23:08:54.570Z,871.8
2022-10-05T23:10:37.893Z,870.1
2022-10-05T23:12:21.331Z,869.3
2022-10-05T23:14:04.697Z,867.2
2022-10-05T23:15:48.092Z,870.3
2022-10-05T23:17:31.535Z,872.1
2022-10-05T23:19:15.232Z,871.3
2022-10-05T23:20:58.574Z,871
2022-10-05T23:22:41.974Z,866.8
2022-10-05T23:24:25.418Z,863.5
2022-10-05T23:26:08.778Z,861.6
2022-10-05T23:27:52.179Z,860.3
2022-10-05T23:29:35.560Z,860.8
2022-10-05T23:31:18.962Z,865.8
2022-10-05T23:33:02.380Z,871.2
2022-10-05T23:36:28.925Z,872.2
2022-10-05T23:38:12.225Z,871.7
2022-10-05T23:41:39.025Z,872.1
2022-10-05T23:43:22.452Z,872.2
2022-10-05T23:45:05.868Z,873
2022-10-05T23:46:49.210Z,871.1
2022-10-05T23:48:32.637Z,870.2
2022-10-05T23:53:41.877Z,871.2
2022-10-05T23:55:25.243Z,869.5
2022-10-05T23:57:08.640Z,869.2
2022-10-05T23:58:52.119Z,867.8
